createdAt,value
2023-03-12T00:00:33.942Z,40.97
2023-03-12T00:04:43.093Z,43.43
2023-03-12T00:08:53.530Z,41.77
2023-03-12T00:13:03.853Z,37.23
2023-03-12T00:17:14.267Z,36.70
2023-03-12T00:21:24.128Z,45.97
2023-03-12T00:25:33.312Z,33.93
2023-03-12T00:29:42.301Z,29.57
2023-03-12T00:33:52.788Z,30.43
2023-03-12T00:38:01.834Z,40.60
2023-03-12T00:42:10.835Z,36.30
2023-03-12T00:46:20.423Z,31.60
2023-03-12T00:50:31.095Z,36.10
2023-03-12T00:54:40.125Z,40.03
2023-03-12T00:58:49.150Z,37.70
2023-03-12T01:02:58.201Z,36.97
2023-03-12T01:07:08.785Z,38.83
2023-03-12T01:11:19.900Z,37.93
2023-03-12T01:15:29.443Z,41.87
2023-03-12T01:19:38.590Z,34.67
2023-03-12T01:23:49.165Z,32.53
2023-03-12T01:27:58.591Z,35.37
2023-03-12T01:32:08.460Z,37.33
2023-03-12T01:36:19.459Z,31.47
2023-03-12T01:40:30.071Z,39.63
2023-03-12T01:44:53.450Z,31.37
2023-03-12T01:49:06.784Z,30.27
2023-03-12T01:53:16.094Z,27.90
2023-03-12T01:57:33.027Z,29.60
2023-03-12T02:01:43.733Z,40.17
2023-03-12T02:05:57.443Z,27.43
2023-03-12T02:10:07.706Z,26.90
2023-03-12T02:14:18.490Z,37.27
2023-03-12T02:18:27.802Z,39.17
2023-03-12T02:22:39.947Z,31.47
2023-03-12T02:26:50.865Z,33.30
2023-03-12T02:31:02.195Z,31.20
2023-03-12T02:35:11.767Z,29.97
2023-03-12T02:39:21.115Z,33.30
2023-03-12T02:43:31.857Z,28.83
2023-03-12T02:47:40.857Z,32.20
2023-03-12T02:51:50.617Z,31.73
2023-03-12T02:55:59.734Z,40.17
2023-03-12T03:00:13.390Z,43.73
2023-03-12T03:04:22.461Z,37.93
2023-03-12T03:08:31.723Z,37.70
2023-03-12T03:12:40.710Z,34.87
2023-03-12T03:16:51.337Z,33.43
2023-03-12T03:21:02.189Z,30.60
2023-03-12T03:25:12.743Z,30.37
2023-03-12T03:29:22.253Z,36.17
2023-03-12T03:33:35.178Z,30.47
2023-03-12T03:37:44.997Z,34.00
2023-03-12T03:41:53.965Z,38.93
2023-03-12T03:46:05.165Z,37.13
2023-03-12T03:50:16.005Z,38.63
2023-03-12T03:54:25.091Z,38.83
2023-03-12T03:58:34.143Z,35.47
2023-03-12T04:02:43.104Z,33.70
2023-03-12T04:06:53.753Z,46.27
2023-03-12T04:11:07.733Z,37.70
2023-03-12T04:15:16.931Z,36.73
2023-03-12T04:19:26.008Z,44.33
2023-03-12T04:23:37.121Z,29.60
2023-03-12T04:27:46.235Z,52.90
2023-03-12T04:31:55.507Z,42.90
2023-03-12T04:36:04.998Z,39.93
2023-03-12T04:40:15.878Z,45.73
2023-03-12T04:44:24.984Z,40.17
2023-03-12T04:48:34.181Z,41.83
2023-03-12T04:52:43.197Z,41.67
2023-03-12T04:56:53.858Z,31.73
2023-03-12T05:01:03.125Z,50.57
2023-03-12T05:05:13.586Z,39.70
2023-03-12T05:09:22.575Z,40.70
2023-03-12T05:13:33.028Z,43.30
2023-03-12T05:17:42.049Z,40.00
2023-03-12T05:21:51.266Z,47.20
2023-03-12T05:26:00.212Z,39.20
2023-03-12T05:30:12.378Z,39.70
2023-03-12T05:34:21.429Z,49.10
2023-03-12T05:38:31.454Z,51.73
2023-03-12T05:42:40.726Z,55.93
2023-03-12T05:46:51.282Z,39.97
2023-03-12T05:51:00.336Z,35.97
2023-03-12T05:55:10.613Z,27.17
2023-03-12T05:59:19.811Z,38.50
2023-03-12T06:03:30.743Z,43.73
2023-03-12T06:07:39.886Z,42.90
2023-03-12T06:11:49.051Z,52.63
2023-03-12T06:16:04.830Z,43.97
2023-03-12T06:20:15.835Z,53.73
2023-03-12T06:24:24.958Z,43.67
2023-03-12T06:28:34.697Z,46.20
2023-03-12T06:32:43.775Z,47.00
2023-03-12T06:36:54.363Z,48.50
2023-03-12T06:41:05.257Z,41.60
2023-03-12T06:45:14.449Z,48.77
2023-03-12T06:49:23.585Z,39.77
2023-03-12T06:53:34.528Z,37.73
2023-03-12T06:57:43.665Z,43.27
2023-03-12T07:01:52.696Z,36.03
2023-03-12T07:06:02.062Z,34.30
2023-03-12T07:10:14.314Z,37.23
2023-03-12T07:14:23.400Z,33.73
2023-03-12T07:18:32.583Z,42.93
2023-03-12T07:22:41.609Z,28.83
2023-03-12T07:26:52.255Z,28.73
2023-03-12T07:31:05.232Z,40.27
2023-03-12T07:35:14.392Z,45.03
2023-03-12T07:39:23.634Z,42.70
2023-03-12T07:43:34.231Z,44.43
2023-03-12T07:47:43.343Z,34.93
2023-03-12T07:51:52.550Z,44.03
2023-03-12T07:56:01.748Z,42.07
2023-03-12T08:00:14.025Z,35.83
2023-03-12T08:04:23.840Z,40.47
2023-03-12T08:08:33.437Z,41.93
2023-03-12T08:12:42.421Z,42.90
2023-03-12T08:16:52.961Z,44.90
2023-03-12T08:21:02.104Z,44.77
2023-03-12T08:25:12.148Z,35.40
2023-03-12T08:29:21.177Z,30.43
2023-03-12T08:33:31.805Z,34.83
2023-03-12T08:37:41.481Z,27.80
2023-03-12T08:41:52.027Z,23.67
2023-03-12T08:46:03.041Z,34.67
2023-03-12T08:50:15.657Z,40.50
2023-03-12T08:54:24.769Z,38.63
2023-03-12T08:58:33.922Z,41.43
2023-03-12T09:02:44.898Z,34.00
2023-03-12T09:06:55.655Z,31.93
2023-03-12T09:11:04.798Z,30.47
2023-03-12T09:15:14.210Z,31.77
2023-03-12T09:19:23.269Z,28.27
2023-03-12T09:23:33.906Z,32.93
2023-03-12T09:27:44.480Z,33.47
2023-03-12T09:31:53.748Z,35.13
2023-03-12T09:36:03.951Z,22.13
2023-03-12T09:40:19.392Z,33.20
2023-03-12T09:44:33.816Z,28.50
2023-03-12T09:48:44.307Z,29.83
2023-03-12T09:53:01.225Z,32.27
2023-03-12T09:57:19.583Z,28.43
2023-03-12T10:01:39.059Z,32.03
2023-03-12T10:05:56.278Z,26.90
2023-03-12T10:10:27.082Z,25.20
2023-03-12T10:14:51.527Z,26.40
2023-03-12T10:19:16.127Z,21.37
2023-03-12T10:23:35.287Z,19.90
2023-03-12T10:27:44.964Z,20.23
2023-03-12T10:32:00.733Z,18.27
2023-03-12T10:36:20.748Z,21.53
2023-03-12T10:40:32.417Z,18.60
2023-03-12T10:44:41.829Z,15.73
2023-03-12T10:48:52.303Z,20.47
2023-03-12T10:53:21.834Z,20.83
2023-03-12T10:57:47.330Z,21.77
2023-03-12T11:01:56.760Z,14.90
2023-03-12T11:06:08.577Z,15.63
2023-03-12T11:10:27.952Z,14.50
2023-03-12T11:14:48.484Z,13.13
2023-03-12T11:19:00.260Z,10.57
2023-03-12T11:23:17.469Z,15.30
2023-03-12T11:27:37.964Z,11.93
2023-03-12T11:31:58.367Z,9.60
2023-03-12T11:36:31.021Z,18.33
2023-03-12T11:40:58.685Z,11.70
2023-03-12T11:45:19.359Z,16.97
2023-03-12T11:49:48.583Z,11.13
2023-03-12T11:54:27.321Z,13.33
2023-03-12T11:58:57.589Z,14.03
2023-03-12T12:03:29.795Z,15.23
2023-03-12T12:07:55.671Z,10.93
2023-03-12T12:12:22.413Z,12.53
2023-03-12T12:16:50.928Z,15.47
2023-03-12T12:21:06.506Z,14.87
2023-03-12T12:25:36.099Z,13.73
2023-03-12T12:30:05.115Z,15.70
2023-03-12T12:34:36.198Z,14.67
2023-03-12T12:38:49.026Z,16.13
2023-03-12T12:43:08.458Z,18.20
2023-03-12T12:47:21.364Z,12.23
2023-03-12T12:51:35.219Z,15.80
2023-03-12T12:55:51.983Z,15.80
2023-03-12T13:00:23.109Z,15.50
2023-03-12T13:04:36.101Z,16.67
2023-03-12T13:09:14.651Z,17.20
2023-03-12T13:13:27.408Z,12.97
2023-03-12T13:18:04.772Z,16.40
2023-03-12T13:22:23.040Z,12.80
2023-03-12T13:26:41.488Z,20.27
2023-03-12T13:30:52.544Z,13.83
2023-03-12T13:35:29.595Z,12.30
2023-03-12T13:39:39.325Z,13.70
2023-03-12T13:43:57.940Z,12.43
2023-03-12T13:48:07.811Z,10.93
2023-03-12T13:52:27.727Z,11.23
2023-03-12T13:56:37.055Z,10.90
2023-03-12T14:00:52.952Z,10.63
2023-03-12T14:05:09.053Z,11.90
2023-03-12T14:09:29.950Z,9.67
2023-03-12T14:14:05.464Z,10.97
2023-03-12T14:18:20.718Z,12.80
2023-03-12T14:22:33.735Z,13.40
2023-03-12T14:26:48.176Z,11.77
2023-03-12T14:31:01.772Z,10.57
2023-03-12T14:35:19.715Z,11.73
2023-03-12T14:39:34.091Z,8.50
2023-03-12T14:43:46.694Z,8.60
2023-03-12T14:47:57.965Z,4.70
2023-03-12T14:52:07.711Z,8.40
2023-03-12T14:56:25.225Z,11.27
2023-03-12T15:00:36.340Z,9.83
2023-03-12T15:04:46.548Z,12.00
2023-03-12T15:08:55.828Z,19.03
2023-03-12T15:13:06.105Z,11.17
2023-03-12T15:17:19.076Z,15.50
2023-03-12T15:21:28.672Z,17.80
2023-03-12T15:25:37.733Z,16.87
2023-03-12T15:29:47.005Z,23.33
2023-03-12T15:34:06.047Z,18.43
2023-03-12T15:38:17.699Z,23.90
2023-03-12T15:42:28.622Z,28.53
2023-03-12T15:46:38.056Z,21.03
2023-03-12T15:50:49.015Z,27.87
2023-03-12T15:55:07.550Z,38.77
2023-03-12T15:59:26.284Z,33.47
2023-03-12T16:03:35.378Z,36.20
2023-03-12T16:07:46.246Z,42.83
2023-03-12T16:11:56.800Z,43.20
2023-03-12T16:16:06.242Z,45.63
2023-03-12T16:20:18.095Z,39.90
2023-03-12T16:24:31.873Z,40.33
2023-03-12T16:28:41.339Z,46.37
2023-03-12T16:32:50.567Z,41.60
2023-03-12T16:37:00.059Z,40.77
2023-03-12T16:41:14.552Z,52.17
2023-03-12T16:45:24.469Z,43.93
2023-03-12T16:49:33.672Z,41.33
2023-03-12T16:53:42.832Z,53.17
2023-03-12T16:57:55.818Z,52.90
2023-03-12T17:02:05.721Z,50.70
2023-03-12T17:06:18.077Z,56.73
2023-03-12T17:10:27.837Z,48.60
2023-03-12T17:14:39.142Z,52.07
2023-03-12T17:18:48.431Z,55.30
2023-03-12T17:22:57.449Z,49.43
2023-03-12T17:27:06.513Z,52.80
2023-03-12T17:31:17.151Z,53.93
2023-03-12T17:35:26.433Z,47.80
2023-03-12T17:39:36.755Z,61.63
2023-03-12T17:43:46.420Z,56.27
2023-03-12T17:47:57.087Z,57.97
2023-03-12T17:52:06.338Z,43.27
2023-03-12T17:56:18.193Z,44.37
2023-03-12T18:00:28.314Z,48.87
2023-03-12T18:04:40.346Z,46.93
2023-03-12T18:08:49.689Z,46.37
2023-03-12T18:12:59.144Z,42.00
2023-03-12T18:17:08.283Z,46.50
2023-03-12T18:21:19.016Z,48.13
2023-03-12T18:25:28.182Z,45.40
2023-03-12T18:29:37.306Z,47.33
2023-03-12T18:33:46.602Z,47.77
2023-03-12T18:37:57.397Z,47.13
2023-03-12T18:42:06.879Z,46.33
2023-03-12T18:46:16.328Z,46.37
2023-03-12T18:50:25.952Z,54.93
2023-03-12T18:54:36.727Z,46.33
2023-03-12T18:58:45.991Z,46.90
2023-03-12T19:02:55.247Z,51.60
2023-03-12T19:07:05.578Z,44.90
2023-03-12T19:11:17.778Z,44.30
2023-03-12T19:15:27.414Z,41.00
2023-03-12T19:19:36.567Z,48.03
2023-03-12T19:23:45.839Z,43.73
2023-03-12T19:27:56.566Z,42.00
2023-03-12T19:32:05.941Z,49.67
2023-03-12T19:36:15.175Z,45.33
2023-03-12T19:40:24.426Z,41.87
2023-03-12T19:44:36.837Z,45.53
2023-03-12T19:48:46.117Z,49.70
2023-03-12T19:52:55.280Z,46.73
2023-03-12T19:57:04.513Z,50.60
2023-03-12T20:01:15.260Z,47.13
2023-03-12T20:05:24.693Z,46.30
2023-03-12T20:09:35.058Z,55.17
2023-03-12T20:13:44.434Z,43.43
2023-03-12T20:17:57.210Z,40.97
2023-03-12T20:22:06.490Z,43.97
2023-03-12T20:26:16.275Z,49.30
2023-03-12T20:30:25.761Z,37.17
2023-03-12T20:34:37.619Z,46.13
2023-03-12T20:38:49.615Z,41.40
2023-03-12T20:42:58.791Z,44.63
2023-03-12T20:47:07.890Z,41.80
2023-03-12T20:51:18.605Z,45.10
2023-03-12T20:55:27.986Z,42.60
2023-03-12T20:59:37.355Z,37.37
2023-03-12T21:03:46.633Z,40.10
2023-03-12T21:07:58.984Z,49.73
2023-03-12T21:12:08.443Z,39.53
2023-03-12T21:16:17.613Z,54.00
2023-03-12T21:20:26.727Z,42.07
2023-03-12T21:24:37.641Z,41.33
2023-03-12T21:28:46.669Z,44.03
2023-03-12T21:32:55.760Z,48.10
2023-03-12T21:37:04.949Z,38.23
2023-03-12T21:41:17.176Z,40.63
2023-03-12T21:45:26.343Z,39.73
2023-03-12T21:49:36.078Z,41.93
2023-03-12T21:53:45.298Z,37.23
2023-03-12T21:57:55.844Z,37.27
2023-03-12T22:02:04.911Z,41.73
2023-03-12T22:06:15.670Z,39.60
2023-03-12T22:10:24.815Z,34.70
2023-03-12T22:14:35.376Z,40.50
2023-03-12T22:18:46.316Z,37.53
2023-03-12T22:22:55.534Z,37.93
2023-03-12T22:27:07.675Z,39.67
2023-03-12T22:31:19.381Z,31.80
2023-03-12T22:35:28.568Z,41.07
2023-03-12T22:39:37.903Z,39.27
2023-03-12T22:43:48.047Z,38.40
2023-03-12T22:47:58.725Z,27.27
2023-03-12T22:52:08.423Z,44.43
2023-03-12T22:56:17.931Z,40.73
2023-03-12T23:00:28.553Z,35.63
2023-03-12T23:04:39.329Z,33.33
2023-03-12T23:08:49.223Z,35.23
2023-03-12T23:12:58.431Z,36.13
2023-03-12T23:17:07.633Z,34.23
2023-03-12T23:21:20.686Z,37.07
2023-03-12T23:25:29.884Z,39.87
2023-03-12T23:29:39.021Z,32.17
2023-03-12T23:33:48.249Z,36.87
2023-03-12T23:37:59.531Z,33.77
2023-03-12T23:42:09.229Z,32.90
2023-03-12T23:46:18.984Z,35.17
2023-03-12T23:50:28.302Z,31.40
2023-03-12T23:54:40.305Z,31.07
2023-03-12T23:58:50.685Z,29.30
